createdAt,value
2019-01-06T00:00:01.262Z,9.90
2019-01-06T00:02:50.672Z,12.03
2019-01-06T00:05:43.170Z,11.97
2019-01-06T00:08:27.152Z,12.40
2019-01-06T00:11:21.219Z,11.87
2019-01-06T00:14:09.391Z,11.83
2019-01-06T00:16:56.221Z,11.50
2019-01-06T00:19:42.552Z,11.70
2019-01-06T00:22:23.573Z,11.43
2019-01-06T00:25:14.903Z,11.37
2019-01-06T00:28:00.266Z,12.53
2019-01-06T00:30:51.471Z,11.80
2019-01-06T00:33:39.792Z,12.10
2019-01-06T00:36:27.961Z,13.07
2019-01-06T00:39:14.812Z,12.80
2019-01-06T00:42:01.704Z,12.80
2019-01-06T00:44:52.894Z,9.17
2019-01-06T00:47:41.162Z,9.90
2019-01-06T00:50:28.056Z,9.63
2019-01-06T00:53:25.474Z,9.60
2019-01-06T00:56:18.338Z,9.03
2019-01-06T00:59:04.950Z,9.80
2019-01-06T01:01:53.213Z,13.43
2019-01-06T01:04:39.844Z,13.83
2019-01-06T01:07:38.501Z,14.37
2019-01-06T01:10:38.837Z,14.20
2019-01-06T01:13:25.488Z,12.53
2019-01-06T01:16:25.752Z,12.50
2019-01-06T01:19:08.420Z,12.63
2019-01-06T01:21:50.013Z,13.07
2019-01-06T01:24:41.511Z,13.60
2019-01-06T01:27:29.999Z,14.03
2019-01-06T01:30:35.088Z,13.67
2019-01-06T01:33:22.281Z,14.73
2019-01-06T01:36:19.409Z,15.30
2019-01-06T01:39:05.990Z,16.60
2019-01-06T01:41:57.237Z,10.70
2019-01-06T01:44:44.110Z,11.57
2019-01-06T01:47:47.298Z,11.20
2019-01-06T01:50:44.430Z,9.67
2019-01-06T01:53:28.687Z,10.17
2019-01-06T01:56:08.321Z,10.73
2019-01-06T01:58:59.520Z,15.27
2019-01-06T02:01:59.498Z,14.67
2019-01-06T02:04:40.822Z,14.03
2019-01-06T02:07:22.466Z,13.80
2019-01-06T02:10:28.617Z,13.70
2019-01-06T02:13:13.383Z,14.00
2019-01-06T02:16:01.630Z,14.40
2019-01-06T02:18:48.434Z,13.40
2019-01-06T02:21:35.317Z,13.40
2019-01-06T02:24:25.495Z,13.17
2019-01-06T02:27:20.713Z,12.73
2019-01-06T02:30:15.050Z,12.10
2019-01-06T02:33:04.622Z,13.33
2019-01-06T02:35:55.641Z,8.97
2019-01-06T02:38:42.654Z,9.23
2019-01-06T02:41:43.971Z,7.90
2019-01-06T02:44:35.521Z,7.87
2019-01-06T02:47:22.993Z,8.60
2019-01-06T02:50:09.763Z,8.70
2019-01-06T02:53:16.200Z,12.53
2019-01-06T02:56:06.641Z,13.17
2019-01-06T02:58:53.335Z,13.43
2019-01-06T03:01:40.041Z,12.73
2019-01-06T03:04:35.532Z,12.40
2019-01-06T03:07:35.863Z,13.00
2019-01-06T03:10:19.297Z,11.90
2019-01-06T03:13:13.690Z,11.63
2019-01-06T03:16:00.609Z,11.47
2019-01-06T03:18:45.915Z,11.57
2019-01-06T03:21:44.626Z,11.00
2019-01-06T03:24:32.773Z,11.13
2019-01-06T03:27:10.964Z,11.33
2019-01-06T03:29:55.383Z,11.83
2019-01-06T03:32:42.293Z,9.13
2019-01-06T03:35:29.021Z,8.53
2019-01-06T03:38:19.961Z,7.90
2019-01-06T03:41:22.446Z,8.07
2019-01-06T03:44:09.436Z,7.77
2019-01-06T03:47:03.548Z,7.43
2019-01-06T03:49:51.367Z,10.63
2019-01-06T03:52:51.784Z,9.67
2019-01-06T03:55:38.497Z,9.67
2019-01-06T03:58:30.898Z,10.10
2019-01-06T04:01:34.220Z,9.50
2019-01-06T04:04:21.023Z,8.07
2019-01-06T04:07:07.615Z,7.80
2019-01-06T04:10:07.863Z,6.77
2019-01-06T04:13:11.090Z,6.60
2019-01-06T04:15:52.756Z,5.93
2019-01-06T04:18:37.120Z,5.30
2019-01-06T04:21:26.987Z,4.70
2019-01-06T04:24:24.310Z,3.60
2019-01-06T04:27:21.698Z,2.97
2019-01-06T04:30:10.738Z,1.97
2019-01-06T04:32:58.420Z,1.60
2019-01-06T04:35:51.704Z,1.83
2019-01-06T04:38:45.940Z,1.67
2019-01-06T04:41:52.068Z,2.33
2019-01-06T04:44:56.338Z,2.30
2019-01-06T04:47:44.002Z,1.93
2019-01-06T04:50:30.658Z,3.00
2019-01-06T04:53:17.619Z,2.63
2019-01-06T04:56:20.686Z,2.20
2019-01-06T04:59:07.285Z,2.10
2019-01-06T05:02:07.600Z,2.40
2019-01-06T05:04:56.846Z,2.50
2019-01-06T05:07:54.822Z,2.30
2019-01-06T05:10:48.812Z,2.17
2019-01-06T05:13:51.977Z,2.70
2019-01-06T05:16:50.424Z,2.50
2019-01-06T05:19:41.395Z,2.60
2019-01-06T05:22:32.391Z,2.60
2019-01-06T05:25:18.973Z,2.40
2019-01-06T05:28:19.198Z,2.43
2019-01-06T05:31:23.333Z,2.67
2019-01-06T05:34:13.631Z,2.77
2019-01-06T05:36:57.675Z,1.83
2019-01-06T05:39:45.845Z,1.90
2019-01-06T05:42:42.964Z,2.00
2019-01-06T05:45:38.361Z,2.10
2019-01-06T05:48:27.871Z,2.30
2019-01-06T05:51:16.113Z,2.60
2019-01-06T05:54:07.310Z,3.13
2019-01-06T05:56:54.257Z,2.97
2019-01-06T05:59:44.656Z,3.20
2019-01-06T06:02:31.765Z,3.87
2019-01-06T06:05:22.966Z,4.20
2019-01-06T06:08:06.596Z,4.60
2019-01-06T06:11:06.234Z,5.60
2019-01-06T06:13:53.080Z,5.73
2019-01-06T06:16:42.288Z,5.83
2019-01-06T06:19:39.781Z,5.80
2019-01-06T06:22:27.973Z,6.47
2019-01-06T06:25:15.441Z,5.53
2019-01-06T06:28:04.031Z,4.90
2019-01-06T06:30:45.849Z,5.53
2019-01-06T06:33:32.604Z,5.00
2019-01-06T06:36:21.645Z,4.87
2019-01-06T06:39:08.530Z,4.40
2019-01-06T06:41:55.499Z,5.73
2019-01-06T06:44:42.315Z,6.17
2019-01-06T06:47:34.129Z,5.83
2019-01-06T06:50:40.167Z,5.73
2019-01-06T06:53:33.789Z,5.83
2019-01-06T06:56:39.945Z,5.27
2019-01-06T06:59:46.062Z,5.60
2019-01-06T07:03:09.719Z,5.73
2019-01-06T07:05:59.465Z,6.10
2019-01-06T07:08:46.433Z,5.97
2019-01-06T07:11:47.479Z,5.40
2019-01-06T07:14:27.170Z,6.07
2019-01-06T07:17:45.088Z,6.03
2019-01-06T07:20:31.655Z,5.77
2019-01-06T07:23:18.618Z,6.90
2019-01-06T07:26:19.358Z,5.77
2019-01-06T07:29:19.410Z,4.50
2019-01-06T07:32:08.723Z,4.30
2019-01-06T07:34:57.637Z,5.40
2019-01-06T07:37:48.790Z,5.40
2019-01-06T07:40:42.806Z,5.23
2019-01-06T07:43:24.926Z,5.80
2019-01-06T07:46:07.803Z,6.00
2019-01-06T07:48:54.410Z,5.53
2019-01-06T07:51:51.532Z,5.00
2019-01-06T07:54:29.541Z,5.43
2019-01-06T07:57:09.411Z,5.70
2019-01-06T08:00:14.958Z,5.50
2019-01-06T08:02:54.993Z,5.83
2019-01-06T08:05:44.211Z,5.87
2019-01-06T08:08:31.295Z,5.87
2019-01-06T08:11:25.527Z,6.23
2019-01-06T08:14:12.330Z,5.03
2019-01-06T08:17:11.941Z,4.90
2019-01-06T08:19:56.091Z,4.80
2019-01-06T08:22:44.145Z,4.50
2019-01-06T08:25:30.965Z,5.20
2019-01-06T08:28:37.366Z,4.83
2019-01-06T08:31:22.411Z,4.83
2019-01-06T08:34:09.342Z,5.70
2019-01-06T08:37:08.244Z,6.67
2019-01-06T08:40:02.243Z,7.40
2019-01-06T08:42:48.861Z,7.27
2019-01-06T08:45:43.499Z,6.93
2019-01-06T08:48:30.398Z,6.20
2019-01-06T08:51:18.524Z,6.50
2019-01-06T08:54:05.524Z,6.87
2019-01-06T08:56:54.758Z,7.17
2019-01-06T08:59:57.874Z,6.20
2019-01-06T09:02:56.278Z,7.30
2019-01-06T09:05:49.535Z,7.77
2019-01-06T09:08:49.793Z,8.17
2019-01-06T09:11:36.652Z,8.63
2019-01-06T09:14:38.651Z,8.30
2019-01-06T09:17:29.929Z,8.20
2019-01-06T09:20:10.955Z,6.73
2019-01-06T09:23:15.289Z,6.60
2019-01-06T09:26:02.107Z,7.73
2019-01-06T09:28:53.607Z,7.17
2019-01-06T09:31:40.461Z,6.97
2019-01-06T09:34:29.669Z,6.87
2019-01-06T09:37:18.274Z,7.73
2019-01-06T09:40:09.559Z,7.73
2019-01-06T09:43:00.758Z,7.93
2019-01-06T09:45:48.943Z,7.90
2019-01-06T09:48:37.095Z,7.27
2019-01-06T09:51:28.019Z,7.63
2019-01-06T09:54:20.520Z,7.47
2019-01-06T09:57:08.620Z,6.97
2019-01-06T09:59:55.399Z,7.07
2019-01-06T10:02:45.131Z,6.70
2019-01-06T10:05:36.080Z,7.47
2019-01-06T10:08:38.862Z,7.27
2019-01-06T10:11:32.776Z,6.80
2019-01-06T10:14:26.972Z,6.50
2019-01-06T10:17:30.386Z,7.20
2019-01-06T10:20:19.734Z,6.50
2019-01-06T10:23:23.424Z,7.13
2019-01-06T10:26:14.450Z,6.00
2019-01-06T10:29:21.138Z,5.83
2019-01-06T10:32:09.656Z,6.90
2019-01-06T10:34:56.338Z,8.50
2019-01-06T10:38:02.729Z,8.10
2019-01-06T10:40:56.842Z,9.10
2019-01-06T10:43:38.365Z,9.60
2019-01-06T10:46:25.025Z,9.10
2019-01-06T10:49:28.145Z,9.27
2019-01-06T10:52:31.533Z,10.30
2019-01-06T10:55:18.973Z,9.47
2019-01-06T10:58:05.574Z,8.77
2019-01-06T11:00:52.525Z,8.37
2019-01-06T11:03:53.142Z,8.27
2019-01-06T11:06:39.979Z,8.43
2019-01-06T11:09:34.217Z,7.50
2019-01-06T11:12:21.635Z,7.63
2019-01-06T11:15:24.883Z,6.57
2019-01-06T11:18:14.671Z,6.33
2019-01-06T11:21:15.010Z,6.43
2019-01-06T11:24:06.118Z,6.43
2019-01-06T11:26:50.222Z,6.77
2019-01-06T11:29:29.878Z,6.90
2019-01-06T11:32:16.728Z,6.27
2019-01-06T11:35:23.316Z,7.83
2019-01-06T11:38:14.562Z,7.80
2019-01-06T11:41:07.895Z,7.90
2019-01-06T11:43:43.791Z,7.67
2019-01-06T11:46:44.097Z,8.77
2019-01-06T11:49:39.475Z,8.50
2019-01-06T11:52:26.341Z,9.00
2019-01-06T11:55:13.187Z,9.70
2019-01-06T11:58:02.609Z,9.27
2019-01-06T12:00:53.579Z,9.20
2019-01-06T12:03:41.247Z,9.70
2019-01-06T12:06:38.395Z,9.90
2019-01-06T12:09:15.463Z,10.17
2019-01-06T12:12:07.526Z,10.27
2019-01-06T12:14:58.861Z,8.50
2019-01-06T12:17:47.005Z,8.07
2019-01-06T12:20:34.321Z,8.37
2019-01-06T12:23:37.681Z,7.80
2019-01-06T12:26:24.819Z,8.40
2019-01-06T12:29:11.500Z,8.20
2019-01-06T12:32:11.495Z,11.47
2019-01-06T12:34:58.676Z,12.53
2019-01-06T12:37:45.556Z,11.13
2019-01-06T12:40:33.751Z,11.70
2019-01-06T12:43:21.988Z,12.13
2019-01-06T12:46:08.890Z,12.63
2019-01-06T12:49:08.906Z,13.07
2019-01-06T12:51:55.800Z,13.93
2019-01-06T12:54:43.998Z,16.13
2019-01-06T12:57:32.487Z,15.73
2019-01-06T13:00:28.684Z,16.53
2019-01-06T13:03:26.309Z,15.03
2019-01-06T13:06:24.108Z,15.27
2019-01-06T13:09:11.084Z,12.07
2019-01-06T13:11:57.776Z,11.20
2019-01-06T13:14:46.257Z,11.27
2019-01-06T13:17:44.162Z,11.00
2019-01-06T13:20:42.146Z,11.00
2019-01-06T13:23:45.260Z,11.87
2019-01-06T13:26:32.653Z,22.83
2019-01-06T13:29:23.657Z,21.57
2019-01-06T13:32:30.079Z,18.83
2019-01-06T13:35:16.725Z,17.57
2019-01-06T13:38:18.623Z,17.63
2019-01-06T13:41:09.846Z,16.17
2019-01-06T13:43:58.596Z,17.27
2019-01-06T13:46:46.850Z,16.47
2019-01-06T13:49:37.770Z,17.27
2019-01-06T13:52:24.673Z,16.20
2019-01-06T13:55:11.244Z,15.87
2019-01-06T13:57:58.148Z,15.40
2019-01-06T14:00:45.304Z,13.23
2019-01-06T14:03:39.604Z,12.30
2019-01-06T14:06:42.890Z,12.40
2019-01-06T14:09:40.390Z,12.67
2019-01-06T14:12:27.160Z,12.50
2019-01-06T14:15:25.804Z,11.20
2019-01-06T14:18:12.427Z,11.03
2019-01-06T14:20:59.174Z,15.47
2019-01-06T14:24:08.937Z,15.23
2019-01-06T14:27:06.451Z,16.60
2019-01-06T14:29:49.258Z,15.77
2019-01-06T14:32:36.427Z,16.53
2019-01-06T14:35:34.108Z,15.43
2019-01-06T14:38:21.349Z,16.33
2019-01-06T14:41:06.968Z,15.77
2019-01-06T14:43:55.779Z,16.33
2019-01-06T14:46:50.208Z,17.70
2019-01-06T14:49:50.846Z,19.70
2019-01-06T14:52:37.422Z,19.27
2019-01-06T14:55:29.235Z,20.23
2019-01-06T14:58:20.492Z,23.13
2019-01-06T15:01:13.263Z,21.20
2019-01-06T15:04:00.200Z,16.50
2019-01-06T15:06:34.256Z,17.20
2019-01-06T15:09:22.813Z,16.30
2019-01-06T15:12:09.026Z,16.07
2019-01-06T15:15:08.558Z,15.50
2019-01-06T15:18:04.250Z,15.33
2019-01-06T15:20:58.087Z,21.33
2019-01-06T15:24:04.182Z,23.00
2019-01-06T15:27:01.207Z,30.07
2019-01-06T15:30:01.500Z,28.97
2019-01-06T15:32:55.498Z,36.40
2019-01-06T15:35:42.602Z,36.80
2019-01-06T15:38:24.156Z,29.70
2019-01-06T15:41:10.782Z,40.83
2019-01-06T15:44:04.980Z,35.63
2019-01-06T15:46:54.143Z,24.20
2019-01-06T15:49:46.627Z,23.53
2019-01-06T15:52:30.729Z,27.33
2019-01-06T15:55:28.061Z,23.00
2019-01-06T15:58:16.427Z,25.00
2019-01-06T16:01:25.290Z,21.77
2019-01-06T16:04:11.661Z,21.17
2019-01-06T16:06:59.923Z,20.47
2019-01-06T16:10:07.603Z,20.27
2019-01-06T16:13:10.731Z,22.23
2019-01-06T16:15:58.935Z,22.73
2019-01-06T16:18:39.624Z,18.30
2019-01-06T16:21:40.351Z,18.67
2019-01-06T16:24:28.588Z,17.70
2019-01-06T16:27:18.364Z,17.17
2019-01-06T16:30:00.470Z,17.33
2019-01-06T16:32:51.812Z,17.57
2019-01-06T16:35:38.556Z,18.20
2019-01-06T16:38:24.015Z,24.13
2019-01-06T16:41:07.320Z,25.63
2019-01-06T16:44:02.018Z,25.50
2019-01-06T16:46:56.343Z,26.30
2019-01-06T16:49:44.966Z,26.77
2019-01-06T16:52:35.347Z,26.30
2019-01-06T16:55:39.414Z,27.70
2019-01-06T16:58:28.548Z,27.33
2019-01-06T17:01:16.846Z,27.57
2019-01-06T17:04:05.071Z,27.23
2019-01-06T17:06:47.500Z,28.50
2019-01-06T17:09:37.523Z,29.33
2019-01-06T17:12:37.920Z,27.63
2019-01-06T17:15:42.745Z,25.30
2019-01-06T17:18:23.640Z,20.47
2019-01-06T17:21:10.575Z,21.13
2019-01-06T17:23:54.063Z,19.27
2019-01-06T17:26:48.743Z,19.87
2019-01-06T17:29:52.125Z,20.33
2019-01-06T17:32:51.980Z,19.87
2019-01-06T17:35:43.504Z,27.30
2019-01-06T17:38:25.562Z,27.57
2019-01-06T17:41:20.062Z,27.67
2019-01-06T17:44:11.104Z,27.97
2019-01-06T17:47:08.505Z,28.63
2019-01-06T17:49:55.420Z,28.87
2019-01-06T17:52:44.451Z,29.30
2019-01-06T17:55:31.056Z,30.30
2019-01-06T17:58:34.436Z,29.23
2019-01-06T18:01:20.918Z,31.63
2019-01-06T18:04:15.704Z,31.23
2019-01-06T18:07:10.182Z,31.17
2019-01-06T18:09:57.340Z,31.90
2019-01-06T18:12:45.518Z,31.20
2019-01-06T18:15:33.207Z,24.23
2019-01-06T18:18:26.097Z,23.93
2019-01-06T18:21:20.339Z,22.80
2019-01-06T18:24:08.487Z,23.77
2019-01-06T18:26:55.117Z,24.17
2019-01-06T18:29:43.289Z,22.93
2019-01-06T18:32:26.457Z,22.73
2019-01-06T18:35:17.652Z,32.20
2019-01-06T18:38:04.563Z,32.10
2019-01-06T18:40:55.803Z,31.73
2019-01-06T18:43:47.802Z,32.77
2019-01-06T18:46:37.415Z,31.77
2019-01-06T18:49:25.177Z,32.13
2019-01-06T18:52:10.935Z,33.53
2019-01-06T18:55:01.075Z,34.00
2019-01-06T18:57:55.424Z,33.67
2019-01-06T19:00:43.578Z,34.57
2019-01-06T19:03:44.932Z,33.63
2019-01-06T19:06:38.936Z,32.73
2019-01-06T19:09:26.648Z,34.97
2019-01-06T19:12:23.960Z,35.60
2019-01-06T19:15:03.072Z,28.63
2019-01-06T19:17:55.288Z,28.13
2019-01-06T19:20:52.666Z,28.23
2019-01-06T19:23:59.059Z,30.47
2019-01-06T19:26:54.476Z,30.63
2019-01-06T19:29:40.871Z,35.37
2019-01-06T19:32:35.015Z,31.13
2019-01-06T19:35:16.919Z,44.23
2019-01-06T19:38:03.709Z,38.77
2019-01-06T19:40:50.613Z,41.27
2019-01-06T19:43:37.560Z,38.97
2019-01-06T19:46:40.113Z,39.93
2019-01-06T19:49:21.819Z,38.50
2019-01-06T19:52:03.383Z,37.20
2019-01-06T19:54:53.953Z,34.73
2019-01-06T19:57:47.456Z,37.80
2019-01-06T20:00:44.949Z,35.43
2019-01-06T20:03:31.554Z,37.27
2019-01-06T20:06:34.935Z,39.17
2019-01-06T20:09:26.475Z,38.73
2019-01-06T20:12:23.570Z,36.27
2019-01-06T20:15:10.575Z,28.47
2019-01-06T20:17:51.298Z,28.27
2019-01-06T20:20:38.200Z,27.23
2019-01-06T20:23:29.396Z,25.03
2019-01-06T20:26:29.730Z,25.77
2019-01-06T20:29:13.736Z,23.87
2019-01-06T20:32:01.902Z,24.30
2019-01-06T20:34:48.780Z,37.03
2019-01-06T20:37:32.458Z,40.23
2019-01-06T20:40:23.678Z,40.47
2019-01-06T20:43:10.241Z,39.37
2019-01-06T20:45:57.545Z,40.90
2019-01-06T20:48:45.636Z,39.73
2019-01-06T20:51:31.854Z,41.60
2019-01-06T20:54:34.231Z,38.87
2019-01-06T20:57:29.945Z,39.70
2019-01-06T21:00:13.924Z,43.20
2019-01-06T21:03:00.809Z,43.50
2019-01-06T21:05:46.131Z,42.20
2019-01-06T21:08:33.592Z,41.70
2019-01-06T21:11:22.493Z,41.80
2019-01-06T21:14:24.316Z,44.30
2019-01-06T21:17:15.539Z,33.90
2019-01-06T21:20:06.913Z,32.03
2019-01-06T21:22:53.521Z,30.63
2019-01-06T21:25:47.845Z,30.40
2019-01-06T21:28:34.941Z,28.33
2019-01-06T21:31:26.115Z,28.10
2019-01-06T21:34:08.198Z,27.33
2019-01-06T21:36:57.750Z,43.90
2019-01-06T21:39:50.355Z,45.43
2019-01-06T21:42:44.477Z,44.60
2019-01-06T21:45:44.951Z,44.43
2019-01-06T21:48:38.896Z,45.40
2019-01-06T21:51:22.752Z,44.60
2019-01-06T21:54:06.203Z,46.70
2019-01-06T21:56:52.810Z,45.50
2019-01-06T21:59:41.098Z,46.27
2019-01-06T22:02:28.203Z,33.93
2019-01-06T22:05:20.644Z,31.53
2019-01-06T22:08:04.848Z,30.03
2019-01-06T22:10:51.811Z,28.97
2019-01-06T22:13:38.818Z,26.97
2019-01-06T22:16:25.214Z,26.90
2019-01-06T22:19:11.777Z,32.23
2019-01-06T22:22:12.378Z,44.13
2019-01-06T22:25:12.483Z,47.90
2019-01-06T22:27:54.747Z,49.17
2019-01-06T22:30:42.365Z,47.97
2019-01-06T22:33:26.687Z,47.93
2019-01-06T22:36:08.498Z,48.73
2019-01-06T22:38:49.715Z,49.30
2019-01-06T22:41:36.426Z,47.93
2019-01-06T22:44:24.680Z,48.00
2019-01-06T22:47:11.494Z,48.43
2019-01-06T22:50:17.857Z,36.50
2019-01-06T22:53:09.036Z,36.33
2019-01-06T22:55:56.586Z,33.43
2019-01-06T22:58:52.460Z,34.73
2019-01-06T23:01:39.366Z,34.23
2019-01-06T23:04:30.356Z,34.00
2019-01-06T23:07:23.594Z,48.57
2019-01-06T23:10:11.916Z,50.47
2019-01-06T23:12:58.537Z,49.30
2019-01-06T23:15:55.895Z,49.07
2019-01-06T23:18:51.754Z,50.40
2019-01-06T23:21:55.058Z,50.83
2019-01-06T23:24:41.773Z,50.73
2019-01-06T23:27:38.806Z,49.30
2019-01-06T23:30:25.705Z,49.87
2019-01-06T23:33:12.220Z,50.93
2019-01-06T23:36:00.538Z,36.87
2019-01-06T23:38:47.219Z,35.00
2019-01-06T23:41:33.966Z,35.10
2019-01-06T23:44:32.731Z,32.57
2019-01-06T23:47:14.931Z,31.27
2019-01-06T23:50:12.923Z,30.07
2019-01-06T23:52:59.603Z,50.30
2019-01-06T23:55:46.078Z,49.27
2019-01-06T23:58:32.927Z,51.80
